Time;durP1;ratioP1;P1;durP2;ratioP2;P2;SDS_P1;SDS_P2;PMS_P1;PMS_P2;Temp;Humidity;BMP_temperature;BMP_pressure;BME280_temperature;BME280_humidity;BME280_pressure;Samples;Min_cycle;Max_cycle;Signal;HPM_P1;HPM_P2
2022/06/17 00:00:21;;;;;;;5.15;3.05;;;;;;;15.64;82.30;100061.81;5031132;28;20037;-79
2022/06/17 00:02:46;;;;;;;4.93;2.40;;;;;;;15.59;82.41;100061.22;5031582;28;20070;-79
2022/06/17 00:05:12;;;;;;;4.25;3.00;;;;;;;15.55;82.92;100062.34;5014469;28;20409;-79
2022/06/17 00:07:41;;;;;;;5.38;2.78;;;;;;;15.51;82.64;100060.84;5030878;28;20033;-79
2022/06/17 00:10:20;;;;;;;5.35;2.85;;;;;;;15.41;83.53;100062.31;5030989;28;20033;-79
2022/06/17 00:12:46;;;;;;;5.07;2.47;;;;;;;15.35;83.36;100066.16;5014361;28;20435;-79
2022/06/17 00:15:11;;;;;;;4.45;2.42;;;;;;;15.37;83.70;100066.06;5031272;28;20045;-79
2022/06/17 00:17:37;;;;;;;5.07;2.60;;;;;;;15.34;83.81;100080.22;5014091;28;20037;-79
2022/06/17 00:20:11;;;;;;;5.20;2.53;;;;;;;15.28;84.73;100075.34;5014260;28;20143;-79
2022/06/17 00:22:40;;;;;;;3.97;2.45;;;;;;;15.19;84.53;100074.09;5030655;28;20095;-79
2022/06/17 00:25:16;;;;;;;5.00;2.47;;;;;;;15.25;84.43;100074.66;5030834;28;20116;-79
2022/06/17 00:27:41;;;;;;;4.60;2.35;;;;;;;15.32;84.55;100086.50;5060607;28;20039;-79
2022/06/17 00:30:16;;;;;;;5.00;2.58;;;;;;;15.35;84.80;100094.19;5071625;28;20020;-79
2022/06/17 00:32:41;;;;;;;3.10;2.78;;;;;;;15.38;84.36;100086.13;5071498;28;20045;-79
2022/06/17 00:35:06;;;;;;;4.28;2.47;;;;;;;15.40;84.48;100085.09;5073080;28;20375;-79
2022/06/17 00:37:32;;;;;;;4.93;2.70;;;;;;;15.42;84.19;100091.13;5072203;28;20468;-79
2022/06/17 00:39:57;;;;;;;4.47;2.97;;;;;;;15.41;84.17;100085.94;5071550;28;20024;-79
2022/06/17 00:42:23;;;;;;;3.65;2.58;;;;;;;15.36;84.37;100086.22;5072517;28;20037;-79
2022/06/17 00:45:05;;;;;;;4.15;2.60;;;;;;;15.29;84.29;100086.66;5071338;28;20075;-79
2022/06/17 00:47:47;;;;;;;2.40;2.17;;;;;;;15.23;84.68;100090.50;5071283;28;20029;-79
2022/06/17 00:50:24;;;;;;;8.00;2.90;;;;;;;15.14;84.95;100081.41;5050027;28;20068;-79
2022/06/17 00:53:11;;;;;;;6.57;2.50;;;;;;;15.07;85.67;100082.69;5033307;28;20033;-79
2022/06/17 00:55:47;;;;;;;3.13;2.42;;;;;;;14.89;85.97;100068.03;5049958;28;20408;-79
2022/06/17 00:58:19;;;;;;;4.93;2.83;;;;;;;14.91;86.27;100087.97;5050039;28;20032;-79
2022/06/17 01:00:47;;;;;;;5.10;2.55;;;;;;;14.88;86.22;100088.16;5049986;28;20064;-79
2022/06/17 01:03:18;;;;;;;3.95;2.50;;;;;;;14.76;86.38;100064.41;5033263;28;20060;-79
2022/06/17 01:05:47;;;;;;;;;;;;;;;14.80;86.42;100084.28;5033225;28;20041;-79
2022/06/17 01:11:21;;;;;;;3.67;2.70;;;;;;;14.64;87.35;100086.94;5050070;28;20148;-79
2022/06/17 01:13:50;;;;;;;5.30;2.60;;;;;;;14.61;88.35;100090.56;5050184;28;20627;-79
2022/06/17 01:16:18;;;;;;;3.15;2.30;;;;;;;14.58;88.71;100093.38;5049938;28;20041;-79
2022/06/17 01:18:45;;;;;;;4.45;2.58;;;;;;;14.52;88.54;100090.25;5049599;28;20051;-79
2022/06/17 01:21:42;;;;;;;4.28;2.30;;;;;;;14.48;88.65;100092.16;5060504;28;20048;-79
2022/06/17 01:24:09;;;;;;;5.00;2.80;;;;;;;14.48;89.17;100095.63;4990415;28;20233;-79
2022/06/17 01:26:35;;;;;;;5.15;3.22;;;;;;;14.43;89.50;100097.66;4990428;28;20050;-79
2022/06/17 01:29:00;;;;;;;5.32;3.15;;;;;;;14.41;89.95;100096.91;4990370;28;20049;-79
2022/06/17 01:31:26;;;;;;;5.97;3.30;;;;;;;14.38;90.16;100097.06;4973740;28;20026;-79
2022/06/17 01:33:51;;;;;;;4.82;2.80;;;;;;;14.31;90.30;100089.63;4990369;28;20097;-79
2022/06/17 01:36:29;;;;;;;4.95;3.20;;;;;;;14.33;90.69;100099.09;4974025;28;20042;-79
2022/06/17 01:38:56;;;;;;;5.35;2.60;;;;;;;14.31;91.19;100097.47;4990196;28;20060;-79
2022/06/17 01:41:33;;;;;;;4.57;2.97;;;;;;;14.27;91.60;100095.94;4990193;28;20045;-79
2022/06/17 01:44:08;;;;;;;3.92;2.45;;;;;;;14.15;91.59;100084.34;4974004;28;20707;-79
2022/06/17 01:46:39;;;;;;;3.65;2.80;;;;;;;14.15;91.28;100092.22;4989918;28;20041;-78
2022/06/17 01:49:14;;;;;;;4.15;2.83;;;;;;;14.17;92.04;100100.84;4972856;28;20104;-79
2022/06/17 01:51:49;;;;;;;3.67;2.55;;;;;;;14.11;92.23;100088.91;4973601;28;20101;-79
2022/06/17 01:54:23;;;;;;;5.55;3.00;;;;;;;14.10;92.34;100092.47;4990176;28;20042;-79
2022/06/17 01:56:52;;;;;;;3.90;2.78;;;;;;;14.00;92.89;100085.22;4989887;28;20034;-79
2022/06/17 01:59:24;;;;;;;3.88;2.55;;;;;;;13.95;93.27;100086.31;4990045;28;20038;-79
2022/06/17 02:01:54;;;;;;;2.88;2.42;;;;;;;13.92;93.73;100091.69;5057684;28;20037;-79
2022/06/17 02:04:25;;;;;;;5.22;2.92;;;;;;;13.89;94.01;100093.63;5072724;28;20392;-79
2022/06/17 02:07:12;;;;;;;3.90;2.80;;;;;;;13.86;94.41;100088.53;5092050;28;20475;-79
2022/06/17 02:09:38;;;;;;;3.38;2.42;;;;;;;13.79;94.44;100088.03;5073475;28;20558;-79
2022/06/17 02:12:05;;;;;;;3.45;2.70;;;;;;;13.70;94.72;100086.75;5073486;28;20067;-79
2022/06/17 02:14:32;;;;;;;3.22;2.67;;;;;;;13.72;95.03;100097.97;5073679;28;20066;-79
2022/06/17 02:16:59;;;;;;;4.20;2.70;;;;;;;13.69;95.16;100099.91;5073599;28;20032;-79
2022/06/17 02:19:27;;;;;;;4.65;3.25;;;;;;;13.61;95.29;100096.84;5073700;28;20387;-79
2022/06/17 02:22:10;;;;;;;5.03;2.67;;;;;;;13.52;96.07;100087.69;5091725;28;20032;-79
2022/06/17 02:24:38;;;;;;;3.83;2.72;;;;;;;13.55;96.03;100102.41;5073273;28;20028;-79
2022/06/17 02:27:07;;;;;;;3.08;2.55;;;;;;;13.51;96.36;100106.94;5091857;28;20062;-79
2022/06/17 02:29:35;;;;;;;4.65;2.75;;;;;;;13.48;96.77;100118.44;5091822;28;20111;-79
2022/06/17 02:32:04;;;;;;;5.22;2.53;;;;;;;13.42;96.93;100121.34;5091776;28;20523;-78
2022/06/17 02:34:30;;;;;;;4.40;3.03;;;;;;;13.31;97.35;100109.72;5073310;28;20046;-79
2022/06/17 02:37:08;;;;;;;8.18;3.10;;;;;;;13.31;97.70;100120.19;5091816;28;20132;-79
2022/06/17 02:39:39;;;;;;;3.10;2.45;;;;;;;13.30;98.24;100121.97;5091528;28;20023;-78
2022/06/17 02:42:04;;;;;;;3.50;2.85;;;;;;;13.20;98.70;100121.56;5091924;28;20101;-79
2022/06/17 02:44:38;;;;;;;4.05;3.53;;;;;;;13.18;99.02;100123.38;5091633;28;20076;-78
2022/06/17 02:47:03;;;;;;;4.43;3.20;;;;;;;13.14;99.33;100126.22;5073320;28;20055;-78
2022/06/17 02:49:34;;;;;;;5.32;3.35;;;;;;;13.15;99.44;100128.78;5091139;28;20371;-79
2022/06/17 02:52:03;;;;;;;6.38;3.08;;;;;;;13.08;99.63;100129.16;5073380;28;20047;-78
2022/06/17 02:54:33;;;;;;;3.58;2.88;;;;;;;13.11;99.74;100139.47;5091199;28;20105;-79
2022/06/17 02:57:01;;;;;;;6.13;3.97;;;;;;;13.09;99.78;100142.16;5073173;28;20024;-78
2022/06/17 02:59:38;;;;;;;6.40;3.70;;;;;;;13.06;99.48;100150.16;5074207;28;20024;-78
2022/06/17 03:02:19;;;;;;;6.07;3.55;;;;;;;13.07;99.73;100159.69;5094859;28;20063;-78
2022/06/17 03:04:46;;;;;;;7.88;3.75;;;;;;;13.00;99.75;100150.44;5094794;28;20177;-79
2022/06/17 03:07:15;;;;;;;4.30;3.38;;;;;;;13.05;99.80;100169.38;5094894;28;20024;-78
2022/06/17 03:09:41;;;;;;;6.38;3.10;;;;;;;12.99;99.60;100161.84;5094915;28;20028;-78
2022/06/17 03:12:10;;;;;;;4.63;3.03;;;;;;;13.02;99.50;100168.66;5094713;28;20034;-78
2022/06/17 03:14:55;;;;;;;3.35;2.83;;;;;;;13.04;99.58;100177.31;5076237;28;20028;-78
2022/06/17 03:17:24;;;;;;;3.85;2.80;;;;;;;13.06;99.63;100178.94;5076702;28;20475;-78
2022/06/17 03:19:53;;;;;;;5.85;3.30;;;;;;;13.04;99.71;100175.53;5094410;28;20038;-79
2022/06/17 03:22:19;;;;;;;7.22;3.90;;;;;;;13.09;99.36;100176.16;5076469;28;20036;-78
2022/06/17 03:24:53;;;;;;;6.25;4.07;;;;;;;13.05;99.62;100173.75;5076202;28;20070;-79
2022/06/17 03:27:26;;;;;;;5.22;3.72;;;;;;;13.10;99.77;100185.69;5076208;28;20493;-78
2022/06/17 03:29:55;;;;;;;7.40;4.20;;;;;;;13.11;99.51;100184.78;5051245;28;20135;-79
2022/06/17 03:32:26;;;;;;;5.47;3.63;;;;;;;13.18;99.51;100190.53;5034859;28;20037;-79
2022/06/17 03:34:55;;;;;;;4.75;3.10;;;;;;;13.22;99.56;100198.19;5051504;28;20151;-78
2022/06/17 03:37:43;;;;;;;3.63;2.80;;;;;;;13.30;99.03;100202.22;5034835;28;20021;-78
2022/06/17 03:40:20;;;;;;;4.15;2.75;;;;;;;13.42;98.20;100197.22;5051579;28;20037;-79
2022/06/17 03:43:07;;;;;;;3.20;2.75;;;;;;;13.51;97.42;100206.38;5051366;28;20641;-78
2022/06/17 03:45:43;;;;;;;4.75;3.00;;;;;;;13.58;96.52;100199.94;5034729;28;20041;-78
2022/06/17 03:48:14;;;;;;;5.82;3.10;;;;;;;13.72;95.89;100207.91;5051576;28;20037;-79
2022/06/17 03:50:47;;;;;;;5.57;3.60;;;;;;;13.77;95.03;100199.00;5034375;28;20040;-79
2022/06/17 03:53:15;;;;;;;6.20;3.40;;;;;;;13.93;94.28;100203.38;5034749;28;20388;-79
2022/06/17 03:55:41;;;;;;;3.85;2.80;;;;;;;14.10;93.64;100210.34;5051126;28;20515;-79
2022/06/17 03:58:06;;;;;;;3.70;2.78;;;;;;;14.29;92.77;100215.47;5051423;28;20029;-79
2022/06/17 04:00:39;;;;;;;3.95;2.33;;;;;;;14.52;91.22;100216.91;5049422;28;20043;-79
2022/06/17 04:03:12;;;;;;;2.50;2.30;;;;;;;14.71;89.48;100216.75;5075596;28;20070;-78
2022/06/17 04:05:40;;;;;;;3.30;2.75;;;;;;;14.88;88.93;100219.28;5093584;28;20052;-79
2022/06/17 04:08:06;;;;;;;4.90;2.97;;;;;;;15.01;87.63;100223.88;5075580;28;20020;-79
2022/06/17 04:10:31;;;;;;;5.63;3.30;;;;;;;15.20;86.51;100220.09;5074924;28;20031;-79
2022/06/17 04:12:57;;;;;;;4.70;3.13;;;;;;;15.57;84.79;100227.66;5093052;28;20046;-79
2022/06/17 04:15:25;;;;;;;3.20;2.38;;;;;;;16.19;83.14;100233.63;5050793;28;20099;-79
2022/06/17 04:17:53;;;;;;;5.00;2.47;;;;;;;16.74;79.64;100243.41;5033927;28;20083;-78
2022/06/17 04:20:36;;;;;;;4.05;2.20;;;;;;;17.35;76.22;100228.09;5050773;28;20037;-79
2022/06/17 04:23:15;;;;;;;2.63;2.10;;;;;;;18.31;72.56;100237.44;5034080;28;20475;-79
2022/06/17 04:25:40;;;;;;;3.55;2.30;;;;;;;19.79;65.64;100231.13;5033764;28;20515;-79
2022/06/17 04:28:10;;;;;;;2.45;2.00;;;;;;;21.66;58.00;100217.13;5050667;28;20029;-79
2022/06/17 04:30:49;;;;;;;3.60;2.35;;;;;;;23.26;51.48;100220.06;5050365;28;20073;-79
2022/06/17 04:33:23;;;;;;;3.47;2.47;;;;;;;23.62;47.34;100221.16;5050661;28;20048;-79
2022/06/17 04:35:56;;;;;;;3.63;2.20;;;;;;;22.72;49.32;100228.44;5050273;28;20068;-80
2022/06/17 04:38:22;;;;;;;3.05;2.03;;;;;;;21.99;51.20;100236.44;5033739;28;20028;-80
2022/06/17 04:40:54;;;;;;;8.65;2.60;;;;;;;21.45;52.26;100228.66;5050336;28;20037;-80
2022/06/17 04:43:36;;;;;;;3.53;2.00;;;;;;;21.05;53.64;100238.03;5033628;28;20119;-79
2022/06/17 04:46:11;;;;;;;2.50;1.73;;;;;;;21.18;54.77;100238.72;5048267;28;20090;-80
2022/06/17 04:48:36;;;;;;;2.53;1.88;;;;;;;21.82;52.13;100227.25;5074506;28;20048;-80
2022/06/17 04:51:04;;;;;;;2.85;1.73;;;;;;;23.71;47.53;100216.00;5074753;28;20114;-80
2022/06/17 04:53:31;;;;;;;4.38;2.10;;;;;;;25.77;42.26;100237.81;5074793;28;20107;-80
2022/06/17 04:55:57;;;;;;;2.80;2.00;;;;;;;26.84;39.65;100226.72;5074345;28;20483;-80
2022/06/17 04:58:25;;;;;;;5.20;1.95;;;;;;;26.64;39.12;100228.03;5092685;28;20035;-80
2022/06/17 05:00:54;;;;;;;2.70;1.75;;;;;;;25.78;41.50;100232.31;5074279;28;20020;-80
2022/06/17 05:03:28;;;;;;;3.95;2.42;;;;;;;25.16;43.21;100233.22;5074800;28;20383;-80
2022/06/17 05:05:54;;;;;;;2.97;2.42;;;;;;;24.84;43.96;100246.03;5092501;28;20051;-80
2022/06/17 05:08:45;;;;;;;2.67;1.70;;;;;;;24.65;44.36;100235.50;5074531;28;20081;-80
2022/06/17 05:11:19;;;;;;;3.08;1.77;;;;;;;25.20;43.47;100227.47;5090753;28;20487;-80
2022/06/17 05:14:25;;;;;;;1.98;1.50;;;;;;;27.11;38.54;100220.31;5092538;28;20031;-80
2022/06/17 05:16:50;;;;;;;2.78;1.50;;;;;;;29.29;32.77;100212.94;4990356;28;20038;-80
2022/06/17 05:19:16;;;;;;;2.22;1.40;;;;;;;30.44;31.10;100218.09;4990516;28;20152;-80
2022/06/17 05:21:41;;;;;;;5.50;1.98;;;;;;;30.17;30.72;100219.56;4974340;28;20121;-81
2022/06/17 05:24:09;;;;;;;2.58;1.73;;;;;;;29.16;32.31;100215.38;4990409;28;20030;-81
2022/06/17 05:26:35;;;;;;;1.65;1.20;;;;;;;28.33;34.40;100216.75;4974125;28;20062;-81
2022/06/17 05:29:00;;;;;;;3.03;1.45;;;;;;;27.78;35.15;100202.31;4973836;28;20152;-81
2022/06/17 05:31:27;;;;;;;4.78;1.58;;;;;;;27.15;36.35;100213.66;4990242;28;20030;-81
2022/06/17 05:33:53;;;;;;;3.70;1.58;;;;;;;26.96;36.16;100213.91;4990235;28;20039;-81
2022/06/17 05:36:18;;;;;;;3.47;1.85;;;;;;;27.69;35.82;100213.19;4990321;28;20040;-81
2022/06/17 05:38:43;;;;;;;2.40;1.80;;;;;;;29.67;32.71;100219.22;4990122;28;20474;-80
2022/06/17 05:41:17;;;;;;;3.53;1.80;;;;;;;30.69;30.30;100221.31;4990195;28;20077;-81
2022/06/17 05:43:43;;;;;;;3.47;2.03;;;;;;;30.42;30.42;100212.06;4990031;28;20027;-81
2022/06/17 05:46:09;;;;;;;1.80;1.45;;;;;;;29.69;30.76;100230.59;4990247;28;20045;-80
2022/06/17 05:48:34;;;;;;;3.63;1.33;;;;;;;28.72;32.41;100226.66;4990154;28;20066;-81
2022/06/17 05:51:00;;;;;;;2.47;1.42;;;;;;;28.45;33.48;100225.28;4989902;28;20402;-81
2022/06/17 05:53:25;;;;;;;1.98;1.40;;;;;;;28.27;33.87;100215.56;5057154;28;20499;-81
2022/06/17 05:55:51;;;;;;;2.30;1.30;;;;;;;28.44;34.14;100224.44;5073605;28;20464;-81
2022/06/17 05:58:17;;;;;;;1.90;1.50;;;;;;;28.35;33.95;100217.41;5073853;28;20024;-81
2022/06/17 06:00:43;;;;;;;2.25;1.27;;;;;;;28.45;33.71;100210.03;5091917;28;20058;-81
2022/06/17 06:03:17;;;;;;;3.75;1.80;;;;;;;28.68;34.23;100210.09;5073828;28;20071;-81
2022/06/17 06:05:42;;;;;;;3.08;1.48;;;;;;;28.81;33.78;100217.56;5091400;28;20048;-81
2022/06/17 06:08:08;;;;;;;1.88;1.40;;;;;;;28.71;33.82;100216.97;5091948;28;20438;-81
2022/06/17 06:10:34;;;;;;;1.63;1.40;;;;;;;28.80;34.19;100221.25;5073738;28;20028;-81
2022/06/17 06:13:06;;;;;;;2.10;1.45;;;;;;;28.95;33.54;100219.50;5073613;28;20399;-80
2022/06/17 06:15:39;;;;;;;2.50;1.20;;;;;;;29.15;34.04;100225.28;5073717;28;20059;-80
2022/06/17 06:18:27;;;;;;;1.90;1.52;;;;;;;28.93;33.38;100234.09;5073646;28;20151;-80
2022/06/17 06:20:52;;;;;;;2.15;1.35;;;;;;;28.33;33.40;100235.50;5091748;28;20032;-81
2022/06/17 06:23:18;;;;;;;3.30;1.70;;;;;;;28.41;35.22;100240.03;5073687;28;20593;-81
2022/06/17 06:25:43;;;;;;;1.17;1.13;;;;;;;29.17;34.39;100247.41;5091195;28;20039;-81
2022/06/17 06:28:16;;;;;;;3.20;2.22;;;;;;;29.76;32.12;100233.41;5091720;28;20028;-81
2022/06/17 06:30:41;;;;;;;3.88;1.70;;;;;;;31.75;29.99;100236.72;5090130;28;20476;-81
2022/06/17 06:33:09;;;;;;;4.63;1.40;;;;;;;33.73;27.37;100245.91;5073078;28;20016;-80
2022/06/17 06:35:37;;;;;;;3.97;1.50;;;;;;;35.92;24.74;100234.13;5076151;28;20399;-81
2022/06/17 06:38:04;;;;;;;2.40;1.75;;;;;;;37.78;21.71;100256.19;5094969;28;20032;-81
2022/06/17 06:40:30;;;;;;;2.30;1.35;;;;;;;38.14;21.03;100250.56;5076919;28;20035;-80
2022/06/17 06:42:57;;;;;;;2.45;1.60;;;;;;;38.43;20.00;100246.06;5076380;28;20016;-81
2022/06/17 06:45:29;;;;;;;2.75;1.90;;;;;;;38.72;19.51;100248.78;5095185;28;20028;-81
2022/06/17 06:47:56;;;;;;;2.22;1.65;;;;;;;39.70;19.00;100251.41;5076677;28;20429;-81
2022/06/17 06:50:24;;;;;;;2.97;1.70;;;;;;;39.17;19.19;100253.47;5076833;28;20035;-81
2022/06/17 06:52:50;;;;;;;3.13;1.88;;;;;;;37.85;20.36;100249.59;5076175;28;20032;-81
2022/06/17 06:55:16;;;;;;;3.22;1.20;;;;;;;37.31;20.73;100248.78;5076510;28;20035;-81
2022/06/17 06:57:57;;;;;;;3.72;1.70;;;;;;;36.99;21.72;100250.09;5093446;28;20027;-81
2022/06/17 07:00:24;;;;;;;2.70;1.73;;;;;;;37.54;20.36;100255.34;5093569;28;20050;-81
2022/06/17 07:02:50;;;;;;;3.53;1.45;;;;;;;37.29;20.86;100269.91;5094418;28;20032;-81
2022/06/17 07:05:17;;;;;;;1.50;1.40;;;;;;;37.64;20.48;100261.03;5073014;28;20056;-79
2022/06/17 07:07:43;;;;;;;2.80;1.40;;;;;;;39.18;18.98;100257.84;5074265;28;20028;-78
2022/06/17 07:10:13;;;;;;;2.40;1.52;;;;;;;40.65;17.95;100264.81;5074233;28;20040;-78
2022/06/17 07:12:39;;;;;;;3.53;1.38;;;;;;;41.70;16.69;100266.41;5074409;28;20082;-78
2022/06/17 07:15:06;;;;;;;1.90;1.20;;;;;;;40.10;17.56;100276.63;5074494;28;20036;-78
2022/06/17 07:17:31;;;;;;;3.20;1.60;;;;;;;40.54;17.62;100268.50;5074532;28;20020;-78
2022/06/17 07:19:56;;;;;;;3.85;1.65;;;;;;;42.16;16.62;100270.31;5074246;28;20369;-78
2022/06/17 07:22:22;;;;;;;2.40;1.30;;;;;;;41.44;16.56;100276.34;5074318;28;20024;-78
2022/06/17 07:24:48;;;;;;;2.63;1.70;;;;;;;38.62;18.22;100268.47;5074215;28;20028;-78
2022/06/17 07:27:14;;;;;;;3.92;1.60;;;;;;;35.68;21.33;100261.03;5074517;28;20085;-78
2022/06/17 07:29:39;;;;;;;2.85;1.40;;;;;;;33.38;23.90;100281.19;5074513;28;20033;-78
2022/06/17 07:32:05;;;;;;;2.95;1.70;;;;;;;31.49;26.40;100269.63;5073933;28;20067;-78
2022/06/17 07:34:30;;;;;;;2.60;1.48;;;;;;;30.19;28.13;100282.03;5073248;28;20103;-78
2022/06/17 07:39:55;;;;;;;1.77;1.45;;;;;;;32.78;26.67;100282.81;5073877;28;20036;-78
2022/06/17 07:42:37;;;;;;;3.60;1.52;;;;;;;34.98;23.74;100277.31;5073719;28;20040;-77
2022/06/17 07:45:07;;;;;;;3.70;1.58;;;;;;;34.63;23.66;100274.06;5073355;28;20034;-78
2022/06/17 07:47:33;;;;;;;2.67;1.60;;;;;;;35.64;23.05;100281.47;5073904;28;20487;-77
2022/06/17 07:49:59;;;;;;;3.63;2.05;;;;;;;34.80;23.41;100277.13;5073334;28;20021;-77
2022/06/17 07:52:25;;;;;;;3.13;1.90;;;;;;;32.65;25.17;100280.06;5072126;28;20028;-78
2022/06/17 07:54:51;;;;;;;3.15;1.67;;;;;;;31.22;26.99;100279.25;5073015;28;20027;-77
2022/06/17 07:57:17;;;;;;;5.15;1.77;;;;;;;33.28;25.29;100276.16;5072977;28;20029;-78
2022/06/17 07:59:43;;;;;;;2.80;1.73;;;;;;;36.64;21.82;100277.88;5073078;28;20486;-78
2022/06/17 08:02:09;;;;;;;3.70;2.15;;;;;;;37.47;20.48;100269.06;5072918;28;20095;-78
2022/06/17 08:04:36;;;;;;;2.75;1.70;;;;;;;36.61;21.18;100275.59;5076171;28;20115;-78
2022/06/17 08:07:03;;;;;;;2.45;1.70;;;;;;;35.91;21.47;100259.59;5093365;28;20040;-77
2022/06/17 08:09:29;;;;;;;2.88;1.75;;;;;;;35.83;21.77;100262.59;5093332;28;20048;-77
2022/06/17 08:11:54;;;;;;;3.95;1.70;;;;;;;35.61;21.94;100271.09;5092875;28;20063;-78
2022/06/17 08:14:20;;;;;;;5.95;1.58;;;;;;;34.12;23.89;100269.38;5093106;28;20020;-77
2022/06/17 08:16:46;;;;;;;3.00;2.10;;;;;;;34.20;24.08;100265.63;5092807;28;20531;-77
2022/06/17 08:19:13;;;;;;;4.53;1.90;;;;;;;33.11;24.57;100271.34;5093339;28;20028;-78
2022/06/17 08:21:38;;;;;;;2.38;1.70;;;;;;;31.30;26.80;100271.09;5093286;28;20028;-78
2022/06/17 08:24:04;;;;;;;2.55;1.60;;;;;;;30.08;29.51;100278.72;5093193;28;20028;-78
2022/06/17 08:26:29;;;;;;;1.90;1.40;;;;;;;29.13;30.58;100286.31;5093031;28;20072;-77
2022/06/17 08:28:55;;;;;;;3.05;1.65;;;;;;;28.19;31.83;100273.69;5092422;28;20148;-77
2022/06/17 08:31:20;;;;;;;2.67;1.70;;;;;;;27.92;32.07;100286.44;5092399;28;20601;-78
2022/06/17 08:33:46;;;;;;;6.53;1.90;;;;;;;27.70;32.93;100279.06;5092860;28;20093;-78
2022/06/17 08:36:14;;;;;;;3.90;2.00;;;;;;;26.89;34.19;100275.22;5092545;28;20028;-77
2022/06/17 08:38:49;;;;;;;3.20;1.80;;;;;;;26.43;35.91;100284.50;5092486;28;20027;-77
2022/06/17 08:41:28;;;;;;;3.67;1.60;;;;;;;26.20;36.77;100284.16;5092707;28;20035;-77
2022/06/17 08:44:15;;;;;;;2.80;1.73;;;;;;;25.93;37.94;100279.81;5092587;28;20594;-77
2022/06/17 08:47:08;;;;;;;3.70;1.90;;;;;;;25.81;38.37;100295.22;5092757;28;20322;-78
2022/06/17 08:50:10;;;;;;;3.60;1.83;;;;;;;25.70;37.75;100276.75;5092797;28;20034;-77
2022/06/17 08:52:54;;;;;;;1.83;1.70;;;;;;;25.82;38.10;100280.88;5092462;28;20028;-77
2022/06/17 08:55:56;;;;;;;3.08;2.00;;;;;;;25.65;37.99;100293.22;5092760;28;20091;-77
2022/06/17 08:58:38;;;;;;;3.45;1.92;;;;;;;25.08;38.41;100288.16;5092084;28;20028;-77
2022/06/17 09:01:39;;;;;;;3.70;2.20;;;;;;;24.75;40.13;100278.91;5091670;28;20034;-77
2022/06/17 09:04:07;;;;;;;5.78;1.98;;;;;;;24.94;40.56;100280.59;5091577;28;20107;-77
2022/06/17 09:06:54;;;;;;;5.22;2.00;;;;;;;25.00;41.06;100288.03;5091956;28;20059;-77
2022/06/17 09:09:22;;;;;;;4.78;2.00;;;;;;;24.99;41.06;100282.81;5092532;28;20029;-77
2022/06/17 09:12:14;;;;;;;5.35;2.08;;;;;;;24.98;41.19;100289.97;5092056;28;20472;-77
2022/06/17 09:14:50;;;;;;;4.07;2.00;;;;;;;25.06;40.43;100295.41;5092148;28;20494;-77
2022/06/17 09:17:15;;;;;;;6.10;2.30;;;;;;;25.04;39.21;100286.75;5091821;28;20111;-76
2022/06/17 09:19:45;;;;;;;3.97;1.92;;;;;;;24.94;39.23;100288.59;5092143;28;20108;-76
2022/06/17 09:22:18;;;;;;;4.53;2.03;;;;;;;24.56;39.35;100297.59;5091967;28;20035;-76
2022/06/17 09:24:45;;;;;;;2.38;1.85;;;;;;;24.31;40.73;100297.25;5091788;28;20028;-77
2022/06/17 09:27:28;;;;;;;6.88;2.20;;;;;;;24.45;40.40;100295.97;5091872;28;20043;-77
2022/06/17 09:30:19;;;;;;;2.85;1.60;;;;;;;24.84;39.96;100309.97;5073674;28;20494;-76
2022/06/17 09:32:53;;;;;;;3.80;1.73;;;;;;;24.96;38.74;100307.13;5073591;28;20471;-77
2022/06/17 09:35:39;;;;;;;2.90;1.70;;;;;;;24.94;38.84;100301.09;5092014;28;20028;-77
2022/06/17 09:38:12;;;;;;;3.17;1.65;;;;;;;24.75;38.26;100297.53;5091562;28;20108;-77
2022/06/17 09:40:46;;;;;;;3.53;2.22;;;;;;;24.31;40.39;100283.94;5091668;28;20020;-77
2022/06/17 09:43:53;;;;;;;3.40;1.70;;;;;;;24.29;40.15;100298.38;5091671;28;20027;-76
2022/06/17 09:46:32;;;;;;;4.50;2.30;;;;;;;24.57;40.06;100302.81;4989789;28;20035;-77
2022/06/17 09:49:07;;;;;;;6.57;2.07;;;;;;;24.60;39.57;100285.69;4989652;28;20030;-77
2022/06/17 09:51:43;;;;;;;2.20;1.60;;;;;;;24.68;40.39;100299.09;4989642;28;20289;-77
2022/06/17 09:54:29;;;;;;;2.30;1.88;;;;;;;24.64;39.79;100305.72;4989756;28;20035;-77
2022/06/17 09:57:06;;;;;;;3.75;2.28;;;;;;;24.45;40.63;100293.31;4989399;28;20078;-77
2022/06/17 09:59:36;;;;;;;2.55;1.58;;;;;;;24.73;41.06;100304.81;4989913;28;20064;-77
2022/06/17 10:02:27;;;;;;;6.53;2.05;;;;;;;24.79;38.42;100301.59;4989569;28;20505;-77
2022/06/17 10:04:55;;;;;;;3.33;2.22;;;;;;;24.84;39.14;100309.16;4989101;28;20051;-77
2022/06/17 10:07:35;;;;;;;2.65;1.80;;;;;;;24.95;39.25;100311.63;4972704;28;20088;-77
2022/06/17 10:10:28;;;;;;;5.68;2.03;;;;;;;24.81;38.86;100299.59;4951858;28;20753;-77
2022/06/17 10:12:56;;;;;;;3.25;1.90;;;;;;;24.58;39.38;100303.66;4953774;29;20035;-77
2022/06/17 10:15:37;;;;;;;3.42;1.77;;;;;;;24.38;40.19;100302.88;4953855;29;20083;-77
2022/06/17 10:21:27;;;;;;;3.10;1.80;;;;;;;24.39;39.78;100301.88;4953817;29;20463;-77
2022/06/17 10:23:55;;;;;;;2.10;1.80;;;;;;;24.13;38.63;100298.97;5043058;28;20120;-78
2022/06/17 10:26:20;;;;;;;3.28;2.00;;;;;;;24.09;39.17;100302.88;5051554;28;20029;-77
2022/06/17 10:29:11;;;;;;;4.65;2.13;;;;;;;24.02;39.90;100302.63;5051611;28;20029;-77
2022/06/17 10:31:39;;;;;;;2.25;1.85;;;;;;;23.85;39.72;100298.88;5051510;28;20029;-77
2022/06/17 10:34:12;;;;;;;2.55;1.90;;;;;;;23.96;41.25;100300.53;5051406;28;20029;-77
2022/06/17 10:36:38;;;;;;;2.53;1.85;;;;;;;24.15;41.09;100312.97;5051515;28;20135;-77
2022/06/17 10:39:06;;;;;;;3.15;2.10;;;;;;;24.08;40.75;100304.72;5051094;28;20056;-77
2022/06/17 10:41:32;;;;;;;4.35;2.17;;;;;;;24.10;40.96;100308.09;5067386;28;20046;-76
2022/06/17 10:43:58;;;;;;;3.75;1.73;;;;;;;24.01;41.24;100302.75;5073708;28;20107;-77
2022/06/17 10:46:28;;;;;;;3.92;1.88;;;;;;;23.90;41.11;100293.97;5073829;28;20483;-76
2022/06/17 10:49:09;;;;;;;3.78;1.92;;;;;;;23.93;40.21;100306.13;5073695;28;20021;-76
2022/06/17 10:51:36;;;;;;;5.97;2.00;;;;;;;24.07;41.16;100294.22;5073823;28;20033;-77
2022/06/17 10:54:15;;;;;;;3.58;2.20;;;;;;;24.43;41.61;100295.28;5073650;28;20082;-76
2022/06/17 10:57:06;;;;;;;3.65;2.10;;;;;;;24.70;40.42;100302.47;5073697;28;20050;-76
2022/06/17 10:59:41;;;;;;;3.63;2.28;;;;;;;24.67;39.92;100302.75;5073828;28;20104;-77
2022/06/17 11:02:23;;;;;;;2.25;1.85;;;;;;;24.74;40.64;100300.38;5073439;28;20368;-76
2022/06/17 11:04:51;;;;;;;3.15;1.80;;;;;;;24.57;39.17;100286.84;5035144;28;1170224;-76
2022/06/17 11:07:22;;;;;;;2.95;1.85;;;;;;;24.65;40.13;100283.44;5094714;28;20161;-76
2022/06/17 11:10:04;;;;;;;3.00;2.00;;;;;;;24.79;40.31;100293.59;5094827;28;20016;-76
2022/06/17 11:12:37;;;;;;;3.42;1.85;;;;;;;24.76;40.10;100283.22;5095213;28;20027;-76
2022/06/17 11:15:17;;;;;;;2.83;1.95;;;;;;;24.86;40.95;100284.03;5094842;28;20024;-76
2022/06/17 11:17:49;;;;;;;2.50;2.10;;;;;;;25.04;39.92;100278.75;5094667;28;20031;-76
2022/06/17 11:20:20;;;;;;;3.22;2.00;;;;;;;25.26;40.14;100282.00;5094050;28;20024;-76
2022/06/17 11:23:07;;;;;;;5.63;2.22;;;;;;;25.35;38.19;100294.44;5094787;28;20116;-76
2022/06/17 11:25:33;;;;;;;3.03;1.85;;;;;;;25.19;38.60;100287.09;5092937;28;20024;-77
2022/06/17 11:27:59;;;;;;;4.53;2.28;;;;;;;25.14;38.53;100289.38;5094268;28;20399;-77
2022/06/17 11:30:31;;;;;;;3.60;2.33;;;;;;;25.08;39.23;100277.50;5093965;28;20031;-76
2022/06/17 11:32:59;;;;;;;4.85;2.45;;;;;;;25.10;39.48;100272.00;5094332;28;20382;-76
2022/06/17 11:35:37;;;;;;;2.38;2.00;;;;;;;24.93;37.27;100283.44;5094127;28;20016;-77
2022/06/17 11:38:10;;;;;;;3.85;2.10;;;;;;;24.69;38.34;100279.47;5093871;28;20028;-77
2022/06/17 11:40:47;;;;;;;2.25;2.05;;;;;;;24.58;38.86;100283.19;5093717;28;20024;-77
2022/06/17 11:43:25;;;;;;;3.40;2.00;;;;;;;24.66;38.80;100285.13;5093772;28;20372;-77
2022/06/17 11:45:50;;;;;;;3.63;1.88;;;;;;;25.03;38.95;100278.88;5094199;28;20030;-77
2022/06/17 11:48:20;;;;;;;2.78;1.60;;;;;;;25.29;38.97;100289.72;5093552;28;20110;-77
2022/06/17 11:51:10;;;;;;;3.70;2.33;;;;;;;25.25;36.38;100296.34;5093631;28;20028;-77
2022/06/17 11:53:50;;;;;;;7.85;2.22;;;;;;;25.19;36.64;100289.75;5093749;28;20024;-77